• Join FlightAware (Why Join?)
  • Login
  • US Flag 
11:46AM EDT


 

Airport Tracker/Info


-or-


 

Live Flight TrackerFlight Track Log ✈ CCA1300 ✈ 20-Oct-2013 ✈ ZGSZ / SZX - ZSPD / PVG

Flight Track Log - Related Links

Times and Time Zones

All times are in EDT time to prevent confusion due to time zone crossing. See the CCA1300 flight status page for this flight to view local times or setup timezone preferences in your user account.

Time Position Orientation Groundspeed Altitude Reporting Facility
EDT Latitude Longitude Course Direction KTS MPH feet Rate Location/Type
08:04AM 26.9854 117.6875 38° Northeast  Level Estimated
08:05AM 27.0664 117.7633 40° Northeast  Level Estimated
08:06AM 27.1474 117.8393 40° Northeast  Level Estimated
08:07AM 27.2283 117.9153 40° Northeast  Level Estimated
08:08AM 27.3091 117.9915 40° Northeast  Level Estimated
08:09AM 27.3900 118.0678 40° Northeast  Level Estimated
08:10AM 27.4708 118.1442 40° Northeast  Level Estimated
08:11AM 27.5515 118.2207 40° Northeast  Level Estimated
08:12AM 27.6322 118.2973 40° Northeast  Level Estimated
08:13AM 27.7129 118.3740 40° Northeast  Level Estimated
08:14AM 27.7935 118.4509 40° Northeast  Level Estimated
08:15AM 27.8741 118.5278 40° Northeast  Level Estimated
08:16AM 27.9546 118.6049 40° Northeast  Level Estimated
08:17AM 28.0351 118.6821 40° Northeast  Level Estimated
08:18AM 28.1155 118.7594 40° Northeast  Level Estimated
08:19AM 28.1959 118.8368 40° Northeast  Level Estimated
08:20AM 28.2763 118.9144 40° Northeast  Level Estimated
08:21AM 28.3566 118.9920 40° Northeast  Level Estimated
08:22AM 28.4369 119.0698 40° Northeast  Level Estimated
08:23AM 28.5171 119.1477 40° Northeast  Level Estimated
08:24AM 28.5973 119.2257 40° Northeast  Level Estimated
08:25AM 28.6774 119.3038 41° Northeast  Level Estimated
08:26AM 28.7575 119.3821 41° Northeast  Level Estimated
08:27AM 28.8376 119.4605 41° Northeast  Level Estimated
08:28AM 28.9176 119.5389 41° Northeast  Level Estimated
08:29AM 28.9975 119.6176 41° Northeast  Level Estimated
08:30AM 29.0774 119.6963 41° Northeast  Level Estimated
08:31AM 29.1573 119.7751 41° Northeast  Level Estimated
08:32AM 29.2371 119.8541 41° Northeast  Level Estimated
08:33AM 29.3169 119.9332 41° Northeast  Level Estimated
08:34AM 29.3966 120.0124 41° Northeast  Level Estimated
08:35AM 29.4763 120.0918 41° Northeast  Level Estimated
08:36AM 29.5560 120.1713 41° Northeast  Level Estimated
08:37AM 29.6355 120.2509 41° Northeast  Level Estimated
08:38AM 29.7151 120.3306 41° Northeast  Level Estimated
08:39AM 29.7946 120.4104 41° Northeast  Level Estimated
08:40AM 29.8740 120.4904 41° Northeast  Level Estimated
08:41AM 29.9534 120.5705 41° Northeast  Level Estimated
08:42AM 30.0327 120.6507 41° Northeast  Level Estimated
08:43AM 30.1120 120.7311 41° Northeast  Level Estimated
08:44AM 30.1913 120.8116 41° Northeast  Level Estimated
08:45AM 30.2705 120.8922 41° Northeast  Level Estimated
08:46AM 30.3496 120.9730 41° Northeast  Level Estimated
08:47AM 30.4287 121.0538 41° Northeast  Level Estimated
08:48AM 30.5078 121.1348 41° Northeast  Level Estimated
08:49AM 30.5868 121.2160 41° Northeast  Level Estimated
08:50AM 30.6658 121.2973 42° Northeast  Level Estimated
08:51AM 30.7446 121.3787 42° Northeast  Level Estimated
08:52AM 30.8235 121.4602 42° Northeast  Level Estimated